createdAt,value
2023-12-30T00:00:51.682Z,0.20
2023-12-30T00:03:19.311Z,0.30
2023-12-30T00:05:46.868Z,0.30
2023-12-30T00:08:14.452Z,0.32
2023-12-30T00:10:41.953Z,0.30
2023-12-30T00:13:09.610Z,0.38
2023-12-30T00:15:37.186Z,0.30
2023-12-30T00:18:06.257Z,0.10
2023-12-30T00:20:33.786Z,0.30
2023-12-30T00:23:01.980Z,0.30
2023-12-30T00:25:29.676Z,0.50
2023-12-30T00:27:57.372Z,0.20
2023-12-30T00:30:25.264Z,0.15
2023-12-30T00:32:52.913Z,0.30
2023-12-30T00:35:22.607Z,0.30
2023-12-30T00:37:50.363Z,0.20
2023-12-30T00:40:25.854Z,0.22
2023-12-30T00:42:54.724Z,0.17
2023-12-30T00:45:22.708Z,0.22
2023-12-30T00:47:50.325Z,0.25
2023-12-30T00:50:17.966Z,0.35
2023-12-30T00:52:46.846Z,0.20
2023-12-30T00:55:14.651Z,0.20
2023-12-30T00:57:42.256Z,0.20
2023-12-30T01:00:10.603Z,0.10
2023-12-30T01:02:38.188Z,0.22
2023-12-30T01:05:06.653Z,0.20
2023-12-30T01:07:35.561Z,0.20
2023-12-30T01:10:05.283Z,0.20
2023-12-30T01:12:32.867Z,0.30
2023-12-30T01:15:00.420Z,0.10
2023-12-30T01:17:28.005Z,0.17
2023-12-30T01:19:55.719Z,0.30
2023-12-30T01:22:23.343Z,0.20
2023-12-30T01:24:50.920Z,0.20
2023-12-30T01:27:19.793Z,0.30
2023-12-30T01:29:47.494Z,0.28
2023-12-30T01:32:15.050Z,0.30
2023-12-30T01:34:42.648Z,0.22
2023-12-30T01:37:10.234Z,0.25
2023-12-30T01:39:37.795Z,0.20
2023-12-30T01:42:05.698Z,0.20
2023-12-30T01:44:34.833Z,0.30
2023-12-30T01:47:02.462Z,0.30
2023-12-30T01:49:30.440Z,0.30
2023-12-30T01:51:58.312Z,0.50
2023-12-30T01:54:26.072Z,0.20
2023-12-30T01:56:53.840Z,0.35
2023-12-30T01:59:22.428Z,0.10
2023-12-30T02:01:51.413Z,0.20
2023-12-30T02:04:19.181Z,0.30
2023-12-30T02:06:46.755Z,0.28
2023-12-30T02:09:14.890Z,0.22
2023-12-30T02:11:43.528Z,0.30
2023-12-30T02:14:24.261Z,0.38
2023-12-30T02:16:53.105Z,0.20
2023-12-30T02:19:20.791Z,0.20
2023-12-30T02:21:48.604Z,0.20
2023-12-30T02:24:17.581Z,0.30
2023-12-30T02:26:45.165Z,0.20
2023-12-30T02:29:13.037Z,0.20
2023-12-30T02:31:47.156Z,0.20
2023-12-30T02:34:16.180Z,0.28
2023-12-30T02:36:44.470Z,0.20
2023-12-30T02:39:12.153Z,0.28
2023-12-30T02:41:41.201Z,0.10
2023-12-30T02:44:08.977Z,0.20
2023-12-30T02:46:36.606Z,0.20
2023-12-30T02:49:07.424Z,0.20
2023-12-30T02:51:38.357Z,0.22
2023-12-30T02:54:06.266Z,0.32
2023-12-30T02:56:33.875Z,0.13
2023-12-30T02:59:03.689Z,0.20
2023-12-30T03:01:33.078Z,0.28
2023-12-30T03:04:02.655Z,0.25
2023-12-30T03:06:31.160Z,0.20
2023-12-30T03:08:58.709Z,0.30
2023-12-30T03:11:27.107Z,0.20
2023-12-30T03:13:56.766Z,0.30
2023-12-30T03:16:26.311Z,0.20
2023-12-30T03:18:54.223Z,0.10
2023-12-30T03:21:22.057Z,0.30
2023-12-30T03:23:49.837Z,0.38
2023-12-30T03:26:17.636Z,0.20
2023-12-30T03:28:45.194Z,0.20
2023-12-30T03:31:22.149Z,0.20
2023-12-30T03:33:51.302Z,0.20
2023-12-30T03:36:18.988Z,0.30
2023-12-30T03:38:47.968Z,0.20
2023-12-30T03:41:15.626Z,0.10
2023-12-30T03:43:43.161Z,0.30
2023-12-30T03:46:10.806Z,0.30
2023-12-30T03:48:37.926Z,0.30
2023-12-30T03:51:07.705Z,0.20
2023-12-30T03:53:35.762Z,0.20
2023-12-30T03:56:03.640Z,0.32
2023-12-30T03:58:31.389Z,0.30
2023-12-30T04:00:59.119Z,0.10
2023-12-30T04:03:26.717Z,0.30
2023-12-30T04:05:54.415Z,0.30
2023-12-30T04:08:23.382Z,0.30
2023-12-30T04:10:50.968Z,0.30
2023-12-30T04:13:18.513Z,0.35
2023-12-30T04:15:46.098Z,0.20
2023-12-30T04:18:14.712Z,0.20
2023-12-30T04:20:42.341Z,0.45
2023-12-30T04:23:09.882Z,0.20
2023-12-30T04:25:39.587Z,0.20
2023-12-30T04:28:07.942Z,0.10
2023-12-30T04:30:35.720Z,0.20
2023-12-30T04:33:04.474Z,0.20
2023-12-30T04:35:36.154Z,0.32
2023-12-30T04:38:04.123Z,0.20
2023-12-30T04:40:31.801Z,0.30
2023-12-30T04:43:00.874Z,0.38
2023-12-30T04:45:28.534Z,0.20
2023-12-30T04:47:56.199Z,0.30
2023-12-30T04:50:24.538Z,0.30
2023-12-30T04:52:52.887Z,0.32
2023-12-30T04:55:20.542Z,0.20
2023-12-30T04:57:49.303Z,0.30
2023-12-30T05:00:21.792Z,0.10
2023-12-30T05:02:51.119Z,0.13
2023-12-30T05:05:18.732Z,0.38
2023-12-30T05:07:47.588Z,0.20
2023-12-30T05:10:15.302Z,0.40
2023-12-30T05:12:43.238Z,0.20
2023-12-30T05:15:13.986Z,0.20
2023-12-30T05:17:43.116Z,0.25
2023-12-30T05:20:13.253Z,0.30
2023-12-30T05:22:41.912Z,0.32
2023-12-30T05:25:10.436Z,0.20
2023-12-30T05:27:38.606Z,0.40
2023-12-30T05:30:08.495Z,0.47
2023-12-30T05:32:36.566Z,0.20
2023-12-30T05:35:06.424Z,0.30
2023-12-30T05:37:34.059Z,0.40
2023-12-30T05:40:01.739Z,0.20
2023-12-30T05:42:29.421Z,0.30
2023-12-30T05:44:56.939Z,0.20
2023-12-30T05:47:24.967Z,0.17
2023-12-30T05:49:52.618Z,0.32
2023-12-30T05:52:21.657Z,0.25
2023-12-30T05:54:49.236Z,0.20
2023-12-30T05:57:17.005Z,0.20
2023-12-30T05:59:44.567Z,0.20
2023-12-30T06:02:12.465Z,0.30
2023-12-30T06:04:41.265Z,0.30
2023-12-30T06:07:09.061Z,0.30
2023-12-30T06:09:38.498Z,0.20
2023-12-30T06:12:06.657Z,0.30
2023-12-30T06:14:34.926Z,0.30
2023-12-30T06:17:02.572Z,0.20
2023-12-30T06:19:30.291Z,0.30
2023-12-30T06:21:57.896Z,0.38
2023-12-30T06:24:27.926Z,0.30
2023-12-30T06:26:56.915Z,0.20
2023-12-30T06:29:28.118Z,0.28
2023-12-30T06:31:56.877Z,0.30
2023-12-30T06:34:24.598Z,0.30
2023-12-30T06:36:52.243Z,0.40
2023-12-30T06:39:21.298Z,0.20
2023-12-30T06:41:48.781Z,0.20
2023-12-30T06:44:17.720Z,0.25
2023-12-30T06:46:45.280Z,0.17
2023-12-30T06:49:13.149Z,0.20
2023-12-30T06:51:40.722Z,0.30
2023-12-30T06:54:08.612Z,0.35
2023-12-30T06:56:37.444Z,0.17
2023-12-30T06:59:05.022Z,0.30
2023-12-30T07:01:38.550Z,0.20
2023-12-30T07:04:06.225Z,0.40
2023-12-30T07:06:33.839Z,0.30
2023-12-30T07:09:01.445Z,0.30
2023-12-30T07:11:29.354Z,0.30
2023-12-30T07:13:56.929Z,0.32
2023-12-30T07:16:24.792Z,0.30
2023-12-30T07:18:53.745Z,0.40
2023-12-30T07:21:21.378Z,0.30
2023-12-30T07:23:48.985Z,0.20
2023-12-30T07:26:16.590Z,0.30
2023-12-30T07:28:44.326Z,0.20
2023-12-30T07:31:12.013Z,0.20
2023-12-30T07:33:39.710Z,0.20
2023-12-30T07:36:09.282Z,0.20
2023-12-30T07:38:36.803Z,0.20
2023-12-30T07:41:04.419Z,0.30
2023-12-30T07:43:32.026Z,0.20
2023-12-30T07:45:59.698Z,0.30
2023-12-30T07:48:30.341Z,0.30
2023-12-30T07:50:57.919Z,0.30
2023-12-30T07:53:26.881Z,0.50
2023-12-30T07:55:54.414Z,0.25
2023-12-30T07:58:22.110Z,0.30
2023-12-30T08:00:49.644Z,0.30
2023-12-30T08:03:17.281Z,0.30
2023-12-30T08:05:45.234Z,0.30
2023-12-30T08:08:13.513Z,0.38
2023-12-30T08:10:42.436Z,0.55
2023-12-30T08:13:10.123Z,0.20
2023-12-30T08:15:37.719Z,0.20
2023-12-30T08:18:20.795Z,0.40
2023-12-30T08:21:41.327Z,0.45
2023-12-30T08:26:38.817Z,0.20
2023-12-30T08:28:12.096Z,0.28
2023-12-30T08:31:01.364Z,0.20
2023-12-30T08:33:33.570Z,0.43
2023-12-30T08:36:01.166Z,0.20
2023-12-30T08:38:32.767Z,0.30
2023-12-30T08:41:00.429Z,0.20
2023-12-30T08:43:29.415Z,0.30
2023-12-30T08:45:57.145Z,0.40
2023-12-30T08:48:24.814Z,0.40
2023-12-30T08:50:52.460Z,0.20
2023-12-30T08:53:25.700Z,0.40
2023-12-30T08:55:53.842Z,0.35
2023-12-30T08:58:22.378Z,0.30
2023-12-30T09:00:51.508Z,0.30
2023-12-30T09:03:20.246Z,0.22
2023-12-30T09:05:48.296Z,0.30
2023-12-30T09:08:15.899Z,0.35
2023-12-30T09:10:43.748Z,0.40
2023-12-30T09:13:11.839Z,0.63
2023-12-30T09:15:40.106Z,0.30
2023-12-30T09:18:11.997Z,0.20
2023-12-30T09:20:41.542Z,0.30
2023-12-30T09:23:09.086Z,0.30
2023-12-30T09:25:36.841Z,0.13
2023-12-30T09:28:04.958Z,0.20
2023-12-30T09:30:32.607Z,0.22
2023-12-30T09:33:00.341Z,0.30
2023-12-30T09:35:29.904Z,0.40
2023-12-30T09:37:57.511Z,0.57
2023-12-30T09:40:25.109Z,0.30
2023-12-30T09:42:52.981Z,0.30
2023-12-30T09:45:21.864Z,0.20
2023-12-30T09:47:49.784Z,0.35
2023-12-30T09:50:17.635Z,0.43
2023-12-30T09:52:46.549Z,0.40
2023-12-30T09:55:14.320Z,0.50
2023-12-30T09:57:42.078Z,0.30
2023-12-30T10:00:10.564Z,0.30
2023-12-30T10:02:39.391Z,0.30
2023-12-30T10:05:08.573Z,0.32
2023-12-30T10:07:36.257Z,0.28
2023-12-30T10:10:06.040Z,0.30
2023-12-30T10:12:33.665Z,0.45
2023-12-30T10:15:01.465Z,0.50
2023-12-30T10:17:30.110Z,0.20
2023-12-30T10:19:58.096Z,0.40
2023-12-30T10:22:25.921Z,0.22
2023-12-30T10:24:53.481Z,0.30
2023-12-30T10:27:23.172Z,0.20
2023-12-30T10:30:00.257Z,0.20
2023-12-30T10:32:28.829Z,0.32
2023-12-30T10:34:56.902Z,0.20
2023-12-30T10:37:25.494Z,0.30
2023-12-30T10:39:55.470Z,0.30
2023-12-30T10:42:24.465Z,0.28
2023-12-30T10:44:52.177Z,0.20
2023-12-30T10:47:23.439Z,0.30
2023-12-30T10:49:53.318Z,0.30
2023-12-30T10:52:24.753Z,0.50
2023-12-30T10:54:56.967Z,0.20
2023-12-30T10:57:28.956Z,0.20
2023-12-30T10:59:59.025Z,0.40
2023-12-30T11:02:26.934Z,0.30
2023-12-30T11:04:56.270Z,0.30
2023-12-30T11:07:27.092Z,0.30
2023-12-30T11:09:54.856Z,0.30
2023-12-30T11:12:22.405Z,0.30
2023-12-30T11:14:51.315Z,0.20
2023-12-30T11:17:36.784Z,0.50
2023-12-30T11:20:24.223Z,0.40
2023-12-30T11:22:52.885Z,0.15
2023-12-30T11:25:20.812Z,0.30
2023-12-30T11:27:49.817Z,0.20
2023-12-30T11:30:19.278Z,0.20
2023-12-30T11:32:47.595Z,0.30
2023-12-30T11:35:15.632Z,0.32
2023-12-30T11:37:46.013Z,0.30
2023-12-30T11:40:16.060Z,0.32
2023-12-30T11:42:48.252Z,0.20
2023-12-30T11:45:16.569Z,0.28
2023-12-30T11:47:48.099Z,0.30
2023-12-30T11:50:15.802Z,0.30
2023-12-30T11:52:47.677Z,0.30
2023-12-30T11:55:15.448Z,0.20
2023-12-30T11:57:43.129Z,0.30
2023-12-30T12:00:12.284Z,0.20
2023-12-30T12:02:43.161Z,0.30
2023-12-30T12:05:12.197Z,0.30
2023-12-30T12:07:39.949Z,0.32
2023-12-30T12:10:08.238Z,0.40
2023-12-30T12:12:37.652Z,0.30
2023-12-30T12:15:06.311Z,0.20
2023-12-30T12:17:34.021Z,0.17
2023-12-30T12:20:02.656Z,0.40
2023-12-30T12:22:31.667Z,0.30
2023-12-30T12:25:02.772Z,0.30
2023-12-30T12:27:32.095Z,0.20
2023-12-30T12:30:00.746Z,0.30
2023-12-30T12:32:30.219Z,0.25
2023-12-30T12:34:58.967Z,0.30
2023-12-30T12:37:27.985Z,0.30
2023-12-30T12:39:57.042Z,0.40
2023-12-30T12:42:30.470Z,0.20
2023-12-30T12:44:59.252Z,0.20
2023-12-30T12:47:27.026Z,0.40
2023-12-30T12:49:54.881Z,0.20
2023-12-30T12:52:22.637Z,0.32
2023-12-30T12:54:50.310Z,0.20
2023-12-30T12:57:19.185Z,0.22
2023-12-30T12:59:46.740Z,0.30
2023-12-30T13:02:15.336Z,0.35
2023-12-30T13:04:43.504Z,0.30
2023-12-30T13:07:12.752Z,0.20
2023-12-30T13:09:54.082Z,0.20
2023-12-30T13:12:23.322Z,0.30
2023-12-30T13:14:52.443Z,0.20
2023-12-30T13:17:20.197Z,0.30
2023-12-30T13:19:48.122Z,0.20
2023-12-30T13:22:15.744Z,0.28
2023-12-30T13:24:45.665Z,0.30
2023-12-30T13:27:13.422Z,0.20
2023-12-30T13:29:44.685Z,0.68
2023-12-30T13:32:13.861Z,0.30
2023-12-30T13:34:41.611Z,0.30
2023-12-30T13:37:10.125Z,0.30
2023-12-30T13:39:41.210Z,0.22
2023-12-30T13:42:10.671Z,0.30
2023-12-30T13:44:43.559Z,0.20
2023-12-30T13:50:15.301Z,0.60
2023-12-30T13:52:42.561Z,1.08
2023-12-30T13:55:14.036Z,0.85
2023-12-30T13:57:42.873Z,0.70
2023-12-30T14:00:11.764Z,1.10
2023-12-30T14:02:40.152Z,0.73
2023-12-30T14:05:16.956Z,0.80
2023-12-30T14:07:45.517Z,0.80
2023-12-30T14:10:19.360Z,0.90
2023-12-30T14:12:48.527Z,0.80
2023-12-30T14:15:19.062Z,1.17
2023-12-30T14:17:46.953Z,0.77
2023-12-30T14:20:15.928Z,0.65
2023-12-30T14:22:43.637Z,0.70
2023-12-30T14:25:12.779Z,0.90
2023-12-30T14:27:41.584Z,0.95
2023-12-30T14:30:12.961Z,1.30
2023-12-30T14:32:42.868Z,0.77
2023-12-30T14:35:11.485Z,0.90
2023-12-30T14:37:40.894Z,0.88
2023-12-30T14:40:09.918Z,0.95
2023-12-30T14:42:37.567Z,0.70
2023-12-30T14:45:08.037Z,0.98
2023-12-30T14:47:37.428Z,0.98
2023-12-30T14:50:08.336Z,0.63
2023-12-30T14:52:37.562Z,0.88
2023-12-30T14:55:08.992Z,0.95
2023-12-30T14:57:36.916Z,0.93
2023-12-30T15:00:07.895Z,0.65
2023-12-30T15:02:35.815Z,0.40
2023-12-30T15:05:03.971Z,0.95
2023-12-30T15:07:31.701Z,1.05
2023-12-30T15:09:59.334Z,0.88
2023-12-30T15:12:28.197Z,0.85
2023-12-30T15:14:55.868Z,0.65
2023-12-30T15:17:23.454Z,1.00
2023-12-30T15:19:52.054Z,0.75
2023-12-30T15:22:20.921Z,0.77
2023-12-30T15:24:48.522Z,1.05
2023-12-30T15:27:16.135Z,1.00
2023-12-30T15:29:44.971Z,0.85
2023-12-30T15:32:13.022Z,0.88
2023-12-30T15:34:40.705Z,1.42
2023-12-30T15:37:08.378Z,0.90
2023-12-30T15:39:36.084Z,0.70
2023-12-30T15:42:03.902Z,0.80
2023-12-30T15:44:33.688Z,0.73
2023-12-30T15:47:02.706Z,0.45
2023-12-30T15:49:30.381Z,0.80
2023-12-30T15:51:57.973Z,0.85
2023-12-30T15:54:25.494Z,0.80
2023-12-30T15:56:53.360Z,0.80
2023-12-30T15:59:20.892Z,1.27
2023-12-30T16:01:48.422Z,0.30
2023-12-30T16:04:17.391Z,0.30
2023-12-30T16:06:45.701Z,0.90
2023-12-30T16:09:13.528Z,1.17
2023-12-30T16:11:41.317Z,1.45
2023-12-30T16:14:11.011Z,0.73
2023-12-30T16:16:42.341Z,1.08
2023-12-30T16:19:10.544Z,1.02
2023-12-30T16:21:39.807Z,0.80
2023-12-30T16:24:08.118Z,1.05
2023-12-30T16:26:35.956Z,0.88
2023-12-30T16:29:04.097Z,0.80
2023-12-30T16:31:32.063Z,0.98
2023-12-30T16:34:00.001Z,0.75
2023-12-30T16:36:27.805Z,0.95
2023-12-30T16:38:58.492Z,0.63
2023-12-30T16:41:26.067Z,0.30
2023-12-30T16:43:53.734Z,1.00
2023-12-30T16:46:21.870Z,1.15
2023-12-30T16:48:49.581Z,1.05
2023-12-30T16:51:17.500Z,1.20
2023-12-30T16:53:45.050Z,0.68
2023-12-30T16:56:16.526Z,1.00
2023-12-30T16:58:44.228Z,0.80
2023-12-30T17:01:12.016Z,0.85
2023-12-30T17:03:39.565Z,0.90
2023-12-30T17:06:07.193Z,0.82
2023-12-30T17:08:34.759Z,0.35
2023-12-30T17:11:02.350Z,0.90
2023-12-30T17:13:35.512Z,1.00
2023-12-30T17:16:10.761Z,0.85
2023-12-30T17:18:38.429Z,0.98
2023-12-30T17:21:06.684Z,0.88
2023-12-30T17:23:34.276Z,0.40
2023-12-30T17:26:01.838Z,0.85
2023-12-30T17:28:30.755Z,1.20
2023-12-30T17:30:58.397Z,0.85
2023-12-30T17:33:26.362Z,0.82
2023-12-30T17:35:54.665Z,0.85
2023-12-30T17:38:22.266Z,0.82
2023-12-30T17:40:50.022Z,0.80
2023-12-30T17:43:17.658Z,0.70
2023-12-30T17:45:46.589Z,0.75
2023-12-30T17:48:14.517Z,0.85
2023-12-30T17:50:44.021Z,0.82
2023-12-30T17:53:12.438Z,0.98
2023-12-30T17:55:41.912Z,0.80
2023-12-30T17:58:09.729Z,0.98
2023-12-30T18:00:37.633Z,1.00
2023-12-30T18:03:07.380Z,0.88
2023-12-30T18:05:35.245Z,0.82
2023-12-30T18:08:02.902Z,0.73
2023-12-30T18:10:30.546Z,1.00
2023-12-30T18:12:58.102Z,0.65
2023-12-30T18:15:26.488Z,0.93
2023-12-30T18:17:54.162Z,0.90
2023-12-30T18:20:23.502Z,0.90
2023-12-30T18:22:51.050Z,1.17
2023-12-30T18:25:20.555Z,1.20
2023-12-30T18:27:48.240Z,1.10
2023-12-30T18:30:16.598Z,1.17
2023-12-30T18:32:44.338Z,0.30
2023-12-30T18:35:12.121Z,0.28
2023-12-30T18:37:42.698Z,0.93
2023-12-30T18:40:11.743Z,1.02
2023-12-30T18:42:39.507Z,1.35
2023-12-30T18:45:07.810Z,0.93
2023-12-30T18:47:35.345Z,0.85
2023-12-30T18:50:02.946Z,0.90
2023-12-30T18:52:30.547Z,0.60
2023-12-30T18:54:59.444Z,0.77
2023-12-30T18:57:26.969Z,0.80
2023-12-30T18:59:55.710Z,0.95
2023-12-30T19:02:23.458Z,0.40
2023-12-30T19:04:51.306Z,0.82
2023-12-30T19:07:19.014Z,0.77
2023-12-30T19:09:46.571Z,1.27
2023-12-30T19:12:15.613Z,0.75
2023-12-30T19:14:43.188Z,1.02
2023-12-30T19:17:10.846Z,0.82
2023-12-30T19:19:38.751Z,0.77
2023-12-30T19:22:08.405Z,0.90
2023-12-30T19:24:38.138Z,0.65
2023-12-30T19:27:06.968Z,0.52
2023-12-30T19:29:38.271Z,0.75
2023-12-30T19:32:06.191Z,0.80
2023-12-30T19:34:33.797Z,1.45
2023-12-30T19:37:02.042Z,0.30
2023-12-30T19:39:29.852Z,0.20
2023-12-30T19:41:57.399Z,1.10
2023-12-30T19:44:25.363Z,0.80
2023-12-30T19:46:54.263Z,0.90
2023-12-30T19:49:21.885Z,1.15
2023-12-30T19:51:49.522Z,1.55
2023-12-30T19:54:17.052Z,0.70
2023-12-30T19:56:45.687Z,0.73
2023-12-30T19:59:13.349Z,1.10
2023-12-30T20:01:41.959Z,1.00
2023-12-30T20:04:11.134Z,0.82
2023-12-30T20:06:40.812Z,0.90
2023-12-30T20:09:08.344Z,0.90
2023-12-30T20:11:35.896Z,0.90
2023-12-30T20:14:03.453Z,1.27
2023-12-30T20:16:31.395Z,0.70
2023-12-30T20:18:59.009Z,1.15
2023-12-30T20:21:27.960Z,0.85
2023-12-30T20:23:55.467Z,0.93
2023-12-30T20:26:23.034Z,0.63
2023-12-30T20:28:51.339Z,0.85
2023-12-30T20:31:19.214Z,0.88
2023-12-30T20:33:46.872Z,1.30
2023-12-30T20:36:20.728Z,0.90
2023-12-30T20:38:49.651Z,0.90
2023-12-30T20:41:17.910Z,0.93
2023-12-30T20:43:45.579Z,0.93
2023-12-30T20:46:13.258Z,0.77
2023-12-30T20:48:43.352Z,0.20
2023-12-30T20:51:10.974Z,0.20
2023-12-30T20:53:38.504Z,1.58
2023-12-30T20:56:07.677Z,1.17
2023-12-30T20:58:35.290Z,0.85
2023-12-30T21:01:02.902Z,0.95
2023-12-30T21:03:32.140Z,0.90
2023-12-30T21:05:59.761Z,0.70
2023-12-30T21:08:27.353Z,1.50
2023-12-30T21:10:54.925Z,1.10
2023-12-30T21:13:23.789Z,1.27
2023-12-30T21:15:51.368Z,0.30
2023-12-30T21:18:19.149Z,0.93
2023-12-30T21:20:47.980Z,0.30
2023-12-30T21:23:15.712Z,1.10
2023-12-30T21:25:49.101Z,1.55
2023-12-30T21:28:16.846Z,1.05
2023-12-30T21:30:45.858Z,1.13
2023-12-30T21:33:13.534Z,1.20
2023-12-30T21:35:41.288Z,0.63
2023-12-30T21:38:08.870Z,0.30
2023-12-30T21:40:36.736Z,1.52
2023-12-30T21:43:04.763Z,1.00
2023-12-30T21:45:32.626Z,0.90
2023-12-30T21:48:01.701Z,1.08
2023-12-30T21:50:29.440Z,0.75
2023-12-30T21:52:57.138Z,0.43
2023-12-30T21:55:25.004Z,0.80
2023-12-30T21:57:52.689Z,1.17
2023-12-30T22:00:20.365Z,0.30
2023-12-30T22:02:48.349Z,0.98
2023-12-30T22:05:20.336Z,0.65
2023-12-30T22:07:47.961Z,1.00
2023-12-30T22:10:18.319Z,1.02
2023-12-30T22:12:45.879Z,0.98
2023-12-30T22:15:13.648Z,0.82
2023-12-30T22:17:41.277Z,1.17
2023-12-30T22:20:09.589Z,0.32
2023-12-30T22:22:38.461Z,0.50
2023-12-30T22:25:06.401Z,0.77
2023-12-30T22:27:34.025Z,1.05
2023-12-30T22:30:02.446Z,0.82
2023-12-30T22:32:30.871Z,1.08
2023-12-30T22:34:58.929Z,0.30
2023-12-30T22:37:26.692Z,0.98
2023-12-30T22:39:55.611Z,0.77
2023-12-30T22:42:23.109Z,1.00
2023-12-30T22:44:50.619Z,0.80
2023-12-30T22:47:18.293Z,0.60
2023-12-30T22:49:45.830Z,0.90
2023-12-30T22:52:13.771Z,0.82
2023-12-30T22:54:42.181Z,0.15
2023-12-30T22:57:11.044Z,0.93
2023-12-30T22:59:38.715Z,0.70
2023-12-30T23:02:06.624Z,1.10
2023-12-30T23:04:34.167Z,0.93
2023-12-30T23:07:00.819Z,0.30
2023-12-30T23:09:28.341Z,0.77
2023-12-30T23:11:55.880Z,0.73
2023-12-30T23:14:26.043Z,0.95
2023-12-30T23:16:53.852Z,1.10
2023-12-30T23:19:21.500Z,0.88
2023-12-30T23:21:49.248Z,1.20
2023-12-30T23:24:16.949Z,0.93
2023-12-30T23:26:44.468Z,0.77
2023-12-30T23:29:11.992Z,0.88
2023-12-30T23:31:42.492Z,0.93
2023-12-30T23:34:10.442Z,1.00
2023-12-30T23:36:40.500Z,0.75
2023-12-30T23:39:08.584Z,1.10
2023-12-30T23:41:36.090Z,1.00
2023-12-30T23:44:03.661Z,0.90
2023-12-30T23:46:31.291Z,0.95
2023-12-30T23:49:00.403Z,0.68
2023-12-30T23:51:27.958Z,1.00
2023-12-30T23:53:55.546Z,0.77
2023-12-30T23:56:23.184Z,1.00
2023-12-30T23:58:50.777Z,1.05
